KRIL

Details ICAO KRIL (RIL)
Name Garfield Co Rgnl
Region United States
Timezone America/Denver (UTC-7.0)
Plans Departing 11
Arriving 12
Stats Elevation 5,544 ft / 1,690 m (AMSL)
Location 39.526314° -107.726940°
Runways 1
Magnetic Variation 9.528° E
Sunrise 2017-12-16 14:26:27 UTC / 2017-12-16 07:26:27 Local
Sunset 2017-12-16 23:49:41 UTC / 2017-12-16 16:49:41 Local
Advertisement - Login to hide

Runways

ID Width Length Bearing (true) Bearing (mag) Surface Threshold Offset Overrun Length
08 98 ft / 30 m 6,984 ft / 2,129 m 92.86° 83.33° Asphalt 0 ft / 0 m 0 ft / 0 m
26 98 ft / 30 m 6,984 ft / 2,129 m 272.87° 263.34° Asphalt 0 ft / 0 m 400 ft / 122 m

Approach Navaids

Runway Type Ident Frequency Range Bearing (true) Bearing (mag) Slope Elevation
26 Localiser IRIL 110.90 MHz 18 nm / 33 km 272.85° 263.33° - 5,544 ft / 1,690 m (AMSL)
26 Glidescope IRIL 110.90 MHz 10 nm / 19 km 272.86° 263.34° 3.60° 5,536 ft / 1,687 m (AMSL)
26 DME IRIL 110.90 MHz 18 nm / 33 km - - - 5,544 ft / 1,690 m (AMSL)

Map

Weather


0- 5 10 15 20 25 30 35+ Temperature / ° C

Clouds and Precipitation
Forecast for 2017-12-16 18:00 UTC. Updated 19 minutes ago

Ground ~20,000 ft ~40,000 ft Winds

METAR

KRIL 161253Z AUTO 11003KT 10SM CLR M08/M14 A2993 RMK AO2 SLP168 T10831144

TAF

TAF KRIL 161120Z 1612/1712 VRB03KT P6SM BKN200

Frequencies

Recorded 135.27 MHz ASOS
Unicom 122.80 MHz CTAF/UNICOM
Warning: Do not use this data for real-world aviation or navigation. No guarantee of current accuracy is given.